sensor_id;sensor_type;location;lat;lon;timestamp;temperature;humidity
40153;DHT22;26371;56.992;23.912;2024-03-06T00:00:14;-0.50;99.90
40153;DHT22;26371;56.992;23.912;2024-03-06T00:02:43;-0.50;99.90
40153;DHT22;26371;56.992;23.912;2024-03-06T00:05:12;-0.40;99.90
40153;DHT22;26371;56.992;23.912;2024-03-06T00:07:41;-0.40;99.90
40153;DHT22;26371;56.992;23.912;2024-03-06T00:10:10;-0.30;99.90
40153;DHT22;26371;56.992;23.912;2024-03-06T00:12:38;-0.30;99.90
40153;DHT22;26371;56.992;23.912;2024-03-06T00:15:08;-0.40;99.90
40153;DHT22;26371;56.992;23.912;2024-03-06T00:17:38;-0.50;99.90
40153;DHT22;26371;56.992;23.912;2024-03-06T00:20:10;-0.50;99.90
40153;DHT22;26371;56.992;23.912;2024-03-06T00:22:39;-0.60;99.90
40153;DHT22;26371;56.992;23.912;2024-03-06T00:25:08;-0.60;99.90
40153;DHT22;26371;56.992;23.912;2024-03-06T00:27:36;-0.60;99.90
40153;DHT22;26371;56.992;23.912;2024-03-06T00:30:06;-0.50;99.90
40153;DHT22;26371;56.992;23.912;2024-03-06T00:32:35;-0.50;99.90
40153;DHT22;26371;56.992;23.912;2024-03-06T00:35:06;-0.40;99.90
40153;DHT22;26371;56.992;23.912;2024-03-06T00:37:35;-0.40;99.90
40153;DHT22;26371;56.992;23.912;2024-03-06T00:40:05;-0.30;99.90
40153;DHT22;26371;56.992;23.912;2024-03-06T00:42:35;-0.30;99.90
40153;DHT22;26371;56.992;23.912;2024-03-06T00:45:07;-0.20;99.90
40153;DHT22;26371;56.992;23.912;2024-03-06T00:47:36;-0.20;99.90
40153;DHT22;26371;56.992;23.912;2024-03-06T00:50:07;-0.10;99.90
40153;DHT22;26371;56.992;23.912;2024-03-06T00:52:36;-0.10;99.90
40153;DHT22;26371;56.992;23.912;2024-03-06T00:55:05;-0.10;99.90
40153;DHT22;26371;56.992;23.912;2024-03-06T00:57:34;-0.10;99.90
40153;DHT22;26371;56.992;23.912;2024-03-06T01:00:03;0.00;99.90
40153;DHT22;26371;56.992;23.912;2024-03-06T01:02:56;0.00;99.90
40153;DHT22;26371;56.992;23.912;2024-03-06T01:05:26;0.00;99.90
40153;DHT22;26371;56.992;23.912;2024-03-06T01:07:55;0.00;99.90
40153;DHT22;26371;56.992;23.912;2024-03-06T01:10:24;0.00;99.90
40153;DHT22;26371;56.992;23.912;2024-03-06T01:12:53;0.00;99.90
40153;DHT22;26371;56.992;23.912;2024-03-06T01:15:21;0.00;99.90
40153;DHT22;26371;56.992;23.912;2024-03-06T01:17:50;0.00;99.90
40153;DHT22;26371;56.992;23.912;2024-03-06T01:20:19;-0.10;99.90
40153;DHT22;26371;56.992;23.912;2024-03-06T01:22:49;0.00;99.90
40153;DHT22;26371;56.992;23.912;2024-03-06T01:25:18;0.00;99.90
40153;DHT22;26371;56.992;23.912;2024-03-06T01:27:48;0.00;99.90
40153;DHT22;26371;56.992;23.912;2024-03-06T01:30:17;0.00;99.90
40153;DHT22;26371;56.992;23.912;2024-03-06T01:36:46;-0.10;99.90
40153;DHT22;26371;56.992;23.912;2024-03-06T01:39:35;0.00;99.90
40153;DHT22;26371;56.992;23.912;2024-03-06T01:42:04;0.00;99.90
40153;DHT22;26371;56.992;23.912;2024-03-06T01:44:32;0.00;99.90
40153;DHT22;26371;56.992;23.912;2024-03-06T01:47:01;0.00;99.90
40153;DHT22;26371;56.992;23.912;2024-03-06T01:49:30;0.00;99.90
40153;DHT22;26371;56.992;23.912;2024-03-06T01:52:14;0.00;99.90
40153;DHT22;26371;56.992;23.912;2024-03-06T01:54:45;-0.10;99.90
40153;DHT22;26371;56.992;23.912;2024-03-06T01:57:15;-0.10;99.90
40153;DHT22;26371;56.992;23.912;2024-03-06T01:59:45;-0.10;99.90
40153;DHT22;26371;56.992;23.912;2024-03-06T02:02:14;0.00;99.90
40153;DHT22;26371;56.992;23.912;2024-03-06T02:04:43;-0.10;99.90
40153;DHT22;26371;56.992;23.912;2024-03-06T02:07:13;0.00;99.90
40153;DHT22;26371;56.992;23.912;2024-03-06T02:09:44;-0.10;99.90
40153;DHT22;26371;56.992;23.912;2024-03-06T02:12:13;-0.10;99.90
40153;DHT22;26371;56.992;23.912;2024-03-06T02:14:41;-0.10;99.90
40153;DHT22;26371;56.992;23.912;2024-03-06T02:17:11;-0.10;99.90
40153;DHT22;26371;56.992;23.912;2024-03-06T02:19:40;-0.10;99.90
40153;DHT22;26371;56.992;23.912;2024-03-06T02:22:11;-0.10;99.90
40153;DHT22;26371;56.992;23.912;2024-03-06T02:24:44;-0.10;99.90
40153;DHT22;26371;56.992;23.912;2024-03-06T02:27:13;-0.10;99.90
40153;DHT22;26371;56.992;23.912;2024-03-06T02:29:43;-0.20;99.90
40153;DHT22;26371;56.992;23.912;2024-03-06T02:32:12;-0.20;99.90
40153;DHT22;26371;56.992;23.912;2024-03-06T02:34:42;-0.20;99.90
40153;DHT22;26371;56.992;23.912;2024-03-06T02:37:12;-0.20;99.90
40153;DHT22;26371;56.992;23.912;2024-03-06T02:39:41;-0.20;99.90
40153;DHT22;26371;56.992;23.912;2024-03-06T02:42:12;-0.20;99.90
40153;DHT22;26371;56.992;23.912;2024-03-06T02:44:41;-0.30;99.90
40153;DHT22;26371;56.992;23.912;2024-03-06T02:47:10;-0.20;99.90
40153;DHT22;26371;56.992;23.912;2024-03-06T02:49:38;-0.30;99.90
40153;DHT22;26371;56.992;23.912;2024-03-06T02:52:07;-0.30;99.90
40153;DHT22;26371;56.992;23.912;2024-03-06T02:54:37;-0.30;99.90
40153;DHT22;26371;56.992;23.912;2024-03-06T02:57:09;-0.30;99.90
40153;DHT22;26371;56.992;23.912;2024-03-06T02:59:39;-0.30;99.90
40153;DHT22;26371;56.992;23.912;2024-03-06T03:02:08;-0.30;99.90
40153;DHT22;26371;56.992;23.912;2024-03-06T03:04:37;-0.30;99.90
40153;DHT22;26371;56.992;23.912;2024-03-06T03:07:06;-0.30;99.90
40153;DHT22;26371;56.992;23.912;2024-03-06T03:09:34;-0.20;99.90
40153;DHT22;26371;56.992;23.912;2024-03-06T03:12:05;-0.20;99.90
40153;DHT22;26371;56.992;23.912;2024-03-06T03:14:34;-0.30;99.90
40153;DHT22;26371;56.992;23.912;2024-03-06T03:17:03;-0.30;99.90
40153;DHT22;26371;56.992;23.912;2024-03-06T03:19:33;-0.30;99.90
40153;DHT22;26371;56.992;23.912;2024-03-06T03:22:02;-0.30;99.90
40153;DHT22;26371;56.992;23.912;2024-03-06T03:24:32;-0.30;99.90
40153;DHT22;26371;56.992;23.912;2024-03-06T03:27:00;-0.40;99.90
40153;DHT22;26371;56.992;23.912;2024-03-06T03:29:31;-0.40;99.90
40153;DHT22;26371;56.992;23.912;2024-03-06T03:32:00;-0.30;99.90
40153;DHT22;26371;56.992;23.912;2024-03-06T03:34:33;-0.40;99.90
40153;DHT22;26371;56.992;23.912;2024-03-06T03:37:02;-0.40;99.90
40153;DHT22;26371;56.992;23.912;2024-03-06T03:39:31;-0.40;99.90
40153;DHT22;26371;56.992;23.912;2024-03-06T03:42:00;-0.40;99.90
40153;DHT22;26371;56.992;23.912;2024-03-06T03:44:30;-0.40;99.90
40153;DHT22;26371;56.992;23.912;2024-03-06T03:46:59;-0.40;99.90
40153;DHT22;26371;56.992;23.912;2024-03-06T03:49:27;-0.40;99.90
40153;DHT22;26371;56.992;23.912;2024-03-06T03:51:56;-0.50;99.90
40153;DHT22;26371;56.992;23.912;2024-03-06T03:54:25;-0.50;99.90
40153;DHT22;26371;56.992;23.912;2024-03-06T03:56:53;-0.50;99.90
40153;DHT22;26371;56.992;23.912;2024-03-06T03:59:22;-0.50;99.90
40153;DHT22;26371;56.992;23.912;2024-03-06T04:01:52;-0.60;99.90
40153;DHT22;26371;56.992;23.912;2024-03-06T04:04:21;-0.70;99.90
40153;DHT22;26371;56.992;23.912;2024-03-06T04:06:50;-0.60;99.90
40153;DHT22;26371;56.992;23.912;2024-03-06T04:09:19;-0.70;99.90
40153;DHT22;26371;56.992;23.912;2024-03-06T08:29:21;1.30;99.90
40153;DHT22;26371;56.992;23.912;2024-03-06T08:31:51;1.30;99.90
40153;DHT22;26371;56.992;23.912;2024-03-06T08:34:39;1.30;99.90
40153;DHT22;26371;56.992;23.912;2024-03-06T08:37:43;1.30;99.90
40153;DHT22;26371;56.992;23.912;2024-03-06T08:40:12;1.40;99.90
40153;DHT22;26371;56.992;23.912;2024-03-06T08:42:43;1.40;99.90
40153;DHT22;26371;56.992;23.912;2024-03-06T08:45:12;1.50;99.90
40153;DHT22;26371;56.992;23.912;2024-03-06T08:47:43;1.50;99.90
40153;DHT22;26371;56.992;23.912;2024-03-06T08:50:12;1.60;99.90
40153;DHT22;26371;56.992;23.912;2024-03-06T08:52:42;1.60;99.90
40153;DHT22;26371;56.992;23.912;2024-03-06T08:55:11;1.70;99.90
40153;DHT22;26371;56.992;23.912;2024-03-06T08:57:39;1.70;99.90
40153;DHT22;26371;56.992;23.912;2024-03-06T09:00:08;1.70;99.90
40153;DHT22;26371;56.992;23.912;2024-03-06T09:02:39;1.80;99.90
40153;DHT22;26371;56.992;23.912;2024-03-06T09:05:11;1.80;99.90
40153;DHT22;26371;56.992;23.912;2024-03-06T09:07:40;1.90;99.90
40153;DHT22;26371;56.992;23.912;2024-03-06T09:10:10;1.90;99.90
40153;DHT22;26371;56.992;23.912;2024-03-06T09:12:40;2.00;99.90
40153;DHT22;26371;56.992;23.912;2024-03-06T09:15:08;2.00;99.90
40153;DHT22;26371;56.992;23.912;2024-03-06T09:17:39;2.10;99.90
40153;DHT22;26371;56.992;23.912;2024-03-06T09:20:11;2.10;99.90
40153;DHT22;26371;56.992;23.912;2024-03-06T09:22:41;2.10;99.90
40153;DHT22;26371;56.992;23.912;2024-03-06T09:25:11;2.20;99.90
40153;DHT22;26371;56.992;23.912;2024-03-06T09:27:43;2.20;99.90
40153;DHT22;26371;56.992;23.912;2024-03-06T09:30:13;2.20;99.90
40153;DHT22;26371;56.992;23.912;2024-03-06T09:32:43;2.30;99.90
40153;DHT22;26371;56.992;23.912;2024-03-06T09:35:13;2.30;99.90
40153;DHT22;26371;56.992;23.912;2024-03-06T09:37:45;2.30;99.90
40153;DHT22;26371;56.992;23.912;2024-03-06T09:40:20;2.40;99.90
40153;DHT22;26371;56.992;23.912;2024-03-06T09:42:50;2.40;99.90
40153;DHT22;26371;56.992;23.912;2024-03-06T09:45:19;2.50;99.90
40153;DHT22;26371;56.992;23.912;2024-03-06T09:47:50;2.50;99.90
40153;DHT22;26371;56.992;23.912;2024-03-06T09:50:24;2.60;99.90
40153;DHT22;26371;56.992;23.912;2024-03-06T09:52:55;2.60;99.90
40153;DHT22;26371;56.992;23.912;2024-03-06T09:55:25;2.60;99.90
40153;DHT22;26371;56.992;23.912;2024-03-06T09:57:55;2.70;99.90
40153;DHT22;26371;56.992;23.912;2024-03-06T10:00:23;2.80;99.90
40153;DHT22;26371;56.992;23.912;2024-03-06T10:02:55;2.90;99.90
40153;DHT22;26371;56.992;23.912;2024-03-06T10:05:26;3.00;99.90
40153;DHT22;26371;56.992;23.912;2024-03-06T10:07:58;3.10;99.90
40153;DHT22;26371;56.992;23.912;2024-03-06T10:10:27;3.10;99.90
40153;DHT22;26371;56.992;23.912;2024-03-06T10:12:56;3.10;99.90
40153;DHT22;26371;56.992;23.912;2024-03-06T10:15:30;3.20;99.90
40153;DHT22;26371;56.992;23.912;2024-03-06T10:18:13;3.20;99.90
40153;DHT22;26371;56.992;23.912;2024-03-06T10:20:45;3.20;99.90
40153;DHT22;26371;56.992;23.912;2024-03-06T10:23:15;3.20;99.90
40153;DHT22;26371;56.992;23.912;2024-03-06T10:25:47;3.30;99.90
40153;DHT22;26371;56.992;23.912;2024-03-06T10:28:20;3.30;99.90
40153;DHT22;26371;56.992;23.912;2024-03-06T10:35:49;3.40;99.90
40153;DHT22;26371;56.992;23.912;2024-03-06T10:38:20;3.50;99.90
40153;DHT22;26371;56.992;23.912;2024-03-06T10:40:51;3.40;99.90
40153;DHT22;26371;56.992;23.912;2024-03-06T10:43:21;3.30;99.90
40153;DHT22;26371;56.992;23.912;2024-03-06T10:45:57;3.20;99.90
40153;DHT22;26371;56.992;23.912;2024-03-06T10:48:28;3.20;99.90
40153;DHT22;26371;56.992;23.912;2024-03-06T10:50:59;3.20;99.90
40153;DHT22;26371;56.992;23.912;2024-03-06T10:53:31;3.10;99.90
40153;DHT22;26371;56.992;23.912;2024-03-06T10:56:04;3.00;99.90
40153;DHT22;26371;56.992;23.912;2024-03-06T10:58:38;2.90;99.90
40153;DHT22;26371;56.992;23.912;2024-03-06T11:01:09;2.90;99.90
40153;DHT22;26371;56.992;23.912;2024-03-06T11:03:40;3.00;99.90
40153;DHT22;26371;56.992;23.912;2024-03-06T11:06:11;3.10;99.90
40153;DHT22;26371;56.992;23.912;2024-03-06T11:08:40;3.10;99.90
40153;DHT22;26371;56.992;23.912;2024-03-06T11:11:21;2.90;99.90
40153;DHT22;26371;56.992;23.912;2024-03-06T11:13:52;3.00;99.90
40153;DHT22;26371;56.992;23.912;2024-03-06T11:16:27;3.00;99.90
40153;DHT22;26371;56.992;23.912;2024-03-06T11:19:07;3.00;99.90
40153;DHT22;26371;56.992;23.912;2024-03-06T11:21:46;3.00;99.90
40153;DHT22;26371;56.992;23.912;2024-03-06T11:24:20;3.00;99.90
40153;DHT22;26371;56.992;23.912;2024-03-06T11:26:50;3.00;99.90
40153;DHT22;26371;56.992;23.912;2024-03-06T11:29:23;3.00;99.90
40153;DHT22;26371;56.992;23.912;2024-03-06T11:32:06;3.00;99.90
40153;DHT22;26371;56.992;23.912;2024-03-06T11:34:36;3.00;99.90
40153;DHT22;26371;56.992;23.912;2024-03-06T11:37:08;3.10;99.90
40153;DHT22;26371;56.992;23.912;2024-03-06T11:39:39;3.10;99.90
40153;DHT22;26371;56.992;23.912;2024-03-06T11:42:09;3.00;99.90
40153;DHT22;26371;56.992;23.912;2024-03-06T11:44:52;3.20;99.90
40153;DHT22;26371;56.992;23.912;2024-03-06T11:47:23;3.10;99.90
40153;DHT22;26371;56.992;23.912;2024-03-06T11:49:53;3.00;99.90
40153;DHT22;26371;56.992;23.912;2024-03-06T11:52:23;2.70;99.90
40153;DHT22;26371;56.992;23.912;2024-03-06T11:54:52;2.90;99.90
40153;DHT22;26371;56.992;23.912;2024-03-06T11:57:21;2.80;99.90
40153;DHT22;26371;56.992;23.912;2024-03-06T11:59:52;2.70;99.90
40153;DHT22;26371;56.992;23.912;2024-03-06T12:02:21;2.70;99.90
40153;DHT22;26371;56.992;23.912;2024-03-06T12:04:50;2.80;99.90
40153;DHT22;26371;56.992;23.912;2024-03-06T12:07:21;2.80;99.90
40153;DHT22;26371;56.992;23.912;2024-03-06T12:09:52;2.90;99.90
40153;DHT22;26371;56.992;23.912;2024-03-06T12:12:21;2.90;99.90
40153;DHT22;26371;56.992;23.912;2024-03-06T12:14:57;3.00;99.90
40153;DHT22;26371;56.992;23.912;2024-03-06T12:17:26;3.00;99.90
40153;DHT22;26371;56.992;23.912;2024-03-06T12:19:56;2.90;99.90
40153;DHT22;26371;56.992;23.912;2024-03-06T12:22:25;2.90;99.90
40153;DHT22;26371;56.992;23.912;2024-03-06T12:25:00;2.90;99.90
40153;DHT22;26371;56.992;23.912;2024-03-06T12:27:29;2.90;99.90
40153;DHT22;26371;56.992;23.912;2024-03-06T12:29:58;2.80;99.90
40153;DHT22;26371;56.992;23.912;2024-03-06T12:32:27;2.90;99.90
40153;DHT22;26371;56.992;23.912;2024-03-06T12:34:58;2.80;99.90
40153;DHT22;26371;56.992;23.912;2024-03-06T12:37:31;2.80;99.90
40153;DHT22;26371;56.992;23.912;2024-03-06T12:40:03;2.80;99.90
40153;DHT22;26371;56.992;23.912;2024-03-06T12:42:32;2.90;99.90
40153;DHT22;26371;56.992;23.912;2024-03-06T12:45:01;3.00;99.90
40153;DHT22;26371;56.992;23.912;2024-03-06T12:47:30;3.10;99.90
40153;DHT22;26371;56.992;23.912;2024-03-06T12:50:00;3.30;99.90
40153;DHT22;26371;56.992;23.912;2024-03-06T12:52:29;3.20;99.90
40153;DHT22;26371;56.992;23.912;2024-03-06T12:54:57;3.10;99.90
40153;DHT22;26371;56.992;23.912;2024-03-06T12:57:28;3.00;99.90
40153;DHT22;26371;56.992;23.912;2024-03-06T12:59:56;3.10;99.90
40153;DHT22;26371;56.992;23.912;2024-03-06T13:02:25;3.20;99.90
40153;DHT22;26371;56.992;23.912;2024-03-06T13:04:54;3.30;99.90
40153;DHT22;26371;56.992;23.912;2024-03-06T13:07:23;3.20;99.90
40153;DHT22;26371;56.992;23.912;2024-03-06T13:09:54;3.10;99.90
40153;DHT22;26371;56.992;23.912;2024-03-06T13:12:23;3.10;99.90
40153;DHT22;26371;56.992;23.912;2024-03-06T13:14:53;3.00;99.90
40153;DHT22;26371;56.992;23.912;2024-03-06T13:17:22;3.00;99.90
40153;DHT22;26371;56.992;23.912;2024-03-06T13:19:51;3.00;99.90
40153;DHT22;26371;56.992;23.912;2024-03-06T13:22:19;2.90;99.90
40153;DHT22;26371;56.992;23.912;2024-03-06T13:24:49;3.00;99.90
40153;DHT22;26371;56.992;23.912;2024-03-06T13:27:18;2.90;99.90
40153;DHT22;26371;56.992;23.912;2024-03-06T13:29:47;2.90;99.90
40153;DHT22;26371;56.992;23.912;2024-03-06T13:32:17;3.00;99.90
40153;DHT22;26371;56.992;23.912;2024-03-06T13:34:46;2.90;99.90
40153;DHT22;26371;56.992;23.912;2024-03-06T13:37:15;2.80;99.90
40153;DHT22;26371;56.992;23.912;2024-03-06T13:39:44;2.60;99.90
40153;DHT22;26371;56.992;23.912;2024-03-06T13:42:12;2.50;99.90
40153;DHT22;26371;56.992;23.912;2024-03-06T13:44:41;2.50;99.90
40153;DHT22;26371;56.992;23.912;2024-03-06T13:47:15;2.50;99.90
40153;DHT22;26371;56.992;23.912;2024-03-06T13:49:46;2.50;99.90
40153;DHT22;26371;56.992;23.912;2024-03-06T13:52:14;2.50;99.90
40153;DHT22;26371;56.992;23.912;2024-03-06T13:54:47;2.50;99.90
40153;DHT22;26371;56.992;23.912;2024-03-06T13:57:16;2.50;99.90
40153;DHT22;26371;56.992;23.912;2024-03-06T13:59:45;2.50;99.90
40153;DHT22;26371;56.992;23.912;2024-03-06T14:02:14;2.50;99.90
40153;DHT22;26371;56.992;23.912;2024-03-06T14:04:43;2.60;99.90
40153;DHT22;26371;56.992;23.912;2024-03-06T14:07:14;2.60;99.90
40153;DHT22;26371;56.992;23.912;2024-03-06T14:09:43;2.70;99.90
40153;DHT22;26371;56.992;23.912;2024-03-06T14:15:55;2.90;99.90
40153;DHT22;26371;56.992;23.912;2024-03-06T14:18:27;2.80;99.90
40153;DHT22;26371;56.992;23.912;2024-03-06T14:20:56;2.80;99.90
40153;DHT22;26371;56.992;23.912;2024-03-06T14:23:26;2.70;99.90
40153;DHT22;26371;56.992;23.912;2024-03-06T14:25:57;2.60;99.90
40153;DHT22;26371;56.992;23.912;2024-03-06T14:28:26;2.50;99.90
40153;DHT22;26371;56.992;23.912;2024-03-06T14:30:54;2.50;99.90
40153;DHT22;26371;56.992;23.912;2024-03-06T14:33:24;2.40;99.90
40153;DHT22;26371;56.992;23.912;2024-03-06T14:39:24;2.40;99.90
40153;DHT22;26371;56.992;23.912;2024-03-06T14:41:54;2.40;99.90
40153;DHT22;26371;56.992;23.912;2024-03-06T14:44:23;2.30;99.90
40153;DHT22;26371;56.992;23.912;2024-03-06T14:46:52;2.30;99.90
40153;DHT22;26371;56.992;23.912;2024-03-06T14:49:21;2.30;99.90
40153;DHT22;26371;56.992;23.912;2024-03-06T14:51:49;2.20;99.90
40153;DHT22;26371;56.992;23.912;2024-03-06T14:54:18;2.20;99.90
40153;DHT22;26371;56.992;23.912;2024-03-06T14:56:48;2.10;99.90
40153;DHT22;26371;56.992;23.912;2024-03-06T14:59:17;2.10;99.90
40153;DHT22;26371;56.992;23.912;2024-03-06T15:01:46;2.10;99.90
40153;DHT22;26371;56.992;23.912;2024-03-06T15:04:15;2.10;99.90
40153;DHT22;26371;56.992;23.912;2024-03-06T15:06:45;2.10;99.90
40153;DHT22;26371;56.992;23.912;2024-03-06T15:09:14;2.10;99.90
40153;DHT22;26371;56.992;23.912;2024-03-06T15:11:50;2.10;99.90
40153;DHT22;26371;56.992;23.912;2024-03-06T15:14:19;2.10;99.90
40153;DHT22;26371;56.992;23.912;2024-03-06T15:16:48;2.00;99.90
40153;DHT22;26371;56.992;23.912;2024-03-06T15:19:17;2.00;99.90
40153;DHT22;26371;56.992;23.912;2024-03-06T15:21:46;1.90;99.90
40153;DHT22;26371;56.992;23.912;2024-03-06T15:24:14;1.90;99.90
40153;DHT22;26371;56.992;23.912;2024-03-06T15:26:43;1.90;99.90
40153;DHT22;26371;56.992;23.912;2024-03-06T15:29:14;1.90;99.90
40153;DHT22;26371;56.992;23.912;2024-03-06T15:31:42;1.90;99.90
40153;DHT22;26371;56.992;23.912;2024-03-06T15:34:24;1.90;99.90
40153;DHT22;26371;56.992;23.912;2024-03-06T15:36:55;1.90;99.90
40153;DHT22;26371;56.992;23.912;2024-03-06T15:39:24;1.90;99.90
40153;DHT22;26371;56.992;23.912;2024-03-06T15:41:52;1.80;99.90
40153;DHT22;26371;56.992;23.912;2024-03-06T15:44:22;1.80;99.90
40153;DHT22;26371;56.992;23.912;2024-03-06T15:46:51;1.80;99.90
40153;DHT22;26371;56.992;23.912;2024-03-06T15:49:35;1.80;99.90
40153;DHT22;26371;56.992;23.912;2024-03-06T15:52:05;1.80;99.90
40153;DHT22;26371;56.992;23.912;2024-03-06T15:54:34;1.70;99.90
40153;DHT22;26371;56.992;23.912;2024-03-06T15:57:07;1.70;99.90
40153;DHT22;26371;56.992;23.912;2024-03-06T15:59:37;1.70;99.90
40153;DHT22;26371;56.992;23.912;2024-03-06T16:02:08;1.70;99.90
40153;DHT22;26371;56.992;23.912;2024-03-06T16:04:37;1.60;99.90
40153;DHT22;26371;56.992;23.912;2024-03-06T16:07:06;1.60;99.90
40153;DHT22;26371;56.992;23.912;2024-03-06T16:09:36;1.60;99.90
40153;DHT22;26371;56.992;23.912;2024-03-06T16:12:06;1.50;99.90
40153;DHT22;26371;56.992;23.912;2024-03-06T16:14:36;1.50;99.90
40153;DHT22;26371;56.992;23.912;2024-03-06T16:17:05;1.40;99.90
40153;DHT22;26371;56.992;23.912;2024-03-06T16:19:34;1.40;99.90
40153;DHT22;26371;56.992;23.912;2024-03-06T16:22:12;1.30;99.90
40153;DHT22;26371;56.992;23.912;2024-03-06T16:24:41;1.30;99.90
40153;DHT22;26371;56.992;23.912;2024-03-06T16:27:10;1.20;99.90
40153;DHT22;26371;56.992;23.912;2024-03-06T16:29:40;1.30;99.90
40153;DHT22;26371;56.992;23.912;2024-03-06T16:32:09;1.20;99.90
40153;DHT22;26371;56.992;23.912;2024-03-06T16:34:37;1.20;99.90
40153;DHT22;26371;56.992;23.912;2024-03-06T16:37:06;1.20;99.90
40153;DHT22;26371;56.992;23.912;2024-03-06T16:39:35;1.20;99.90
40153;DHT22;26371;56.992;23.912;2024-03-06T16:42:04;1.20;99.90
40153;DHT22;26371;56.992;23.912;2024-03-06T16:44:35;1.10;99.90
40153;DHT22;26371;56.992;23.912;2024-03-06T16:47:05;1.10;99.90
40153;DHT22;26371;56.992;23.912;2024-03-06T16:49:34;1.10;99.90
40153;DHT22;26371;56.992;23.912;2024-03-06T16:52:04;1.10;99.90
40153;DHT22;26371;56.992;23.912;2024-03-06T16:54:33;1.10;99.90
40153;DHT22;26371;56.992;23.912;2024-03-06T16:57:02;1.10;99.90
40153;DHT22;26371;56.992;23.912;2024-03-06T16:59:31;1.00;99.90
40153;DHT22;26371;56.992;23.912;2024-03-06T17:02:00;1.00;99.90
40153;DHT22;26371;56.992;23.912;2024-03-06T17:04:31;1.10;99.90
40153;DHT22;26371;56.992;23.912;2024-03-06T17:06:59;1.10;99.90
40153;DHT22;26371;56.992;23.912;2024-03-06T17:09:36;1.10;99.90
40153;DHT22;26371;56.992;23.912;2024-03-06T17:12:05;1.10;99.90
40153;DHT22;26371;56.992;23.912;2024-03-06T17:14:35;1.10;99.90
40153;DHT22;26371;56.992;23.912;2024-03-06T17:17:04;1.10;99.90
40153;DHT22;26371;56.992;23.912;2024-03-06T17:19:35;1.10;99.90
40153;DHT22;26371;56.992;23.912;2024-03-06T17:22:05;1.10;99.90
40153;DHT22;26371;56.992;23.912;2024-03-06T17:24:38;1.10;99.90
40153;DHT22;26371;56.992;23.912;2024-03-06T17:27:08;1.10;99.90
40153;DHT22;26371;56.992;23.912;2024-03-06T17:29:37;1.10;99.90
40153;DHT22;26371;56.992;23.912;2024-03-06T17:32:06;1.00;99.90
40153;DHT22;26371;56.992;23.912;2024-03-06T17:34:38;1.00;99.90
40153;DHT22;26371;56.992;23.912;2024-03-06T17:37:07;1.10;99.90
40153;DHT22;26371;56.992;23.912;2024-03-06T17:39:36;1.10;99.90
40153;DHT22;26371;56.992;23.912;2024-03-06T17:42:05;1.10;99.90
40153;DHT22;26371;56.992;23.912;2024-03-06T17:44:34;1.00;99.90
40153;DHT22;26371;56.992;23.912;2024-03-06T17:47:03;1.00;99.90
40153;DHT22;26371;56.992;23.912;2024-03-06T17:49:32;1.00;99.90
40153;DHT22;26371;56.992;23.912;2024-03-06T17:52:03;1.00;99.90
40153;DHT22;26371;56.992;23.912;2024-03-06T17:54:32;1.10;99.90
40153;DHT22;26371;56.992;23.912;2024-03-06T17:57:03;1.10;99.90
40153;DHT22;26371;56.992;23.912;2024-03-06T17:59:32;1.10;99.90
40153;DHT22;26371;56.992;23.912;2024-03-06T18:02:02;1.10;99.90
40153;DHT22;26371;56.992;23.912;2024-03-06T18:04:31;1.10;99.90
40153;DHT22;26371;56.992;23.912;2024-03-06T18:07:01;1.20;99.90
40153;DHT22;26371;56.992;23.912;2024-03-06T18:09:30;1.10;99.90
40153;DHT22;26371;56.992;23.912;2024-03-06T18:11:59;1.10;99.90
40153;DHT22;26371;56.992;23.912;2024-03-06T18:14:28;1.00;99.90
40153;DHT22;26371;56.992;23.912;2024-03-06T18:16:57;1.10;99.90
40153;DHT22;26371;56.992;23.912;2024-03-06T18:19:26;1.10;99.90
40153;DHT22;26371;56.992;23.912;2024-03-06T18:21:55;1.10;99.90
40153;DHT22;26371;56.992;23.912;2024-03-06T18:24:25;1.10;99.90
40153;DHT22;26371;56.992;23.912;2024-03-06T18:26:55;1.10;99.90
40153;DHT22;26371;56.992;23.912;2024-03-06T18:29:25;1.10;99.90
40153;DHT22;26371;56.992;23.912;2024-03-06T18:31:55;1.10;99.90
40153;DHT22;26371;56.992;23.912;2024-03-06T18:34:24;1.10;99.90
40153;DHT22;26371;56.992;23.912;2024-03-06T18:36:53;1.00;99.90
40153;DHT22;26371;56.992;23.912;2024-03-06T18:39:22;1.00;99.90
40153;DHT22;26371;56.992;23.912;2024-03-06T18:41:52;1.00;99.90
40153;DHT22;26371;56.992;23.912;2024-03-06T18:44:32;1.00;99.90
40153;DHT22;26371;56.992;23.912;2024-03-06T18:47:01;0.90;99.90
40153;DHT22;26371;56.992;23.912;2024-03-06T18:49:30;0.90;99.90
40153;DHT22;26371;56.992;23.912;2024-03-06T18:51:59;0.80;99.90
40153;DHT22;26371;56.992;23.912;2024-03-06T18:54:28;0.80;99.90
40153;DHT22;26371;56.992;23.912;2024-03-06T18:56:58;0.80;99.90
40153;DHT22;26371;56.992;23.912;2024-03-06T18:59:26;0.80;99.90
40153;DHT22;26371;56.992;23.912;2024-03-06T19:01:55;0.80;99.90
40153;DHT22;26371;56.992;23.912;2024-03-06T19:04:24;0.80;99.90
40153;DHT22;26371;56.992;23.912;2024-03-06T19:06:53;0.80;99.90
40153;DHT22;26371;56.992;23.912;2024-03-06T19:09:22;0.70;99.90
40153;DHT22;26371;56.992;23.912;2024-03-06T19:11:50;0.60;99.90
40153;DHT22;26371;56.992;23.912;2024-03-06T19:14:21;0.60;99.90
40153;DHT22;26371;56.992;23.912;2024-03-06T19:16:50;0.60;99.90
40153;DHT22;26371;56.992;23.912;2024-03-06T19:19:19;0.60;99.90
40153;DHT22;26371;56.992;23.912;2024-03-06T19:21:47;0.70;99.90
40153;DHT22;26371;56.992;23.912;2024-03-06T19:24:17;0.70;99.90
40153;DHT22;26371;56.992;23.912;2024-03-06T19:26:47;0.70;99.90
40153;DHT22;26371;56.992;23.912;2024-03-06T19:29:16;0.70;99.90
40153;DHT22;26371;56.992;23.912;2024-03-06T19:31:47;0.70;99.90
40153;DHT22;26371;56.992;23.912;2024-03-06T19:34:16;0.70;99.90
40153;DHT22;26371;56.992;23.912;2024-03-06T19:36:45;0.70;99.90
40153;DHT22;26371;56.992;23.912;2024-03-06T19:39:15;0.60;99.90
40153;DHT22;26371;56.992;23.912;2024-03-06T19:41:44;0.60;99.90
40153;DHT22;26371;56.992;23.912;2024-03-06T19:44:13;0.60;99.90
40153;DHT22;26371;56.992;23.912;2024-03-06T19:46:42;0.60;99.90
40153;DHT22;26371;56.992;23.912;2024-03-06T19:49:13;0.60;99.90
40153;DHT22;26371;56.992;23.912;2024-03-06T19:51:42;0.60;99.90
40153;DHT22;26371;56.992;23.912;2024-03-06T19:54:11;0.70;99.90
40153;DHT22;26371;56.992;23.912;2024-03-06T19:56:39;0.70;99.90
40153;DHT22;26371;56.992;23.912;2024-03-06T19:59:08;0.60;99.90
40153;DHT22;26371;56.992;23.912;2024-03-06T20:01:37;0.60;99.90
40153;DHT22;26371;56.992;23.912;2024-03-06T20:04:06;0.50;99.90
40153;DHT22;26371;56.992;23.912;2024-03-06T20:06:36;0.60;99.90
40153;DHT22;26371;56.992;23.912;2024-03-06T20:09:06;0.60;99.90
40153;DHT22;26371;56.992;23.912;2024-03-06T20:11:36;0.60;99.90
40153;DHT22;26371;56.992;23.912;2024-03-06T20:14:05;0.50;99.90
40153;DHT22;26371;56.992;23.912;2024-03-06T20:16:33;0.50;99.90
40153;DHT22;26371;56.992;23.912;2024-03-06T20:19:02;0.50;99.90